createdAt,value
2017-12-29T00:00:40.902Z,65.70
2017-12-29T00:03:10.063Z,66.00
2017-12-29T00:08:08.802Z,65.80
2017-12-29T00:10:37.635Z,65.80
2017-12-29T00:13:07.168Z,66.50
2017-12-29T00:15:35.945Z,66.10
2017-12-29T00:18:04.888Z,66.10
2017-12-29T00:20:34.870Z,66.30
2017-12-29T00:23:03.687Z,66.50
2017-12-29T00:25:33.626Z,66.40
2017-12-29T00:28:02.800Z,66.00
2017-12-29T00:30:31.501Z,66.20
2017-12-29T00:33:00.685Z,66.10
2017-12-29T00:35:29.477Z,66.40
2017-12-29T00:37:58.162Z,66.20
2017-12-29T00:40:28.075Z,65.90
2017-12-29T00:42:57.584Z,65.80
2017-12-29T00:45:27.449Z,65.90
2017-12-29T00:50:26.610Z,66.60
2017-12-29T00:52:55.699Z,67.00
2017-12-29T00:55:24.386Z,66.90
2017-12-29T00:57:53.898Z,66.90
2017-12-29T01:00:22.838Z,66.80
2017-12-29T01:02:52.295Z,66.60
2017-12-29T01:05:21.892Z,66.50
2017-12-29T01:07:50.681Z,66.60
2017-12-29T01:10:19.373Z,66.80
2017-12-29T01:12:48.156Z,67.10
2017-12-29T01:15:16.951Z,67.40
2017-12-29T01:17:46.047Z,67.60
2017-12-29T01:20:15.551Z,67.60
2017-12-29T01:22:44.955Z,67.70
2017-12-29T01:25:13.635Z,67.80
2017-12-29T01:27:42.742Z,68.00
2017-12-29T01:30:12.748Z,68.80
2017-12-29T01:32:42.562Z,68.50
2017-12-29T01:35:11.349Z,68.00
2017-12-29T01:37:40.477Z,68.30
2017-12-29T01:40:09.244Z,68.50
2017-12-29T01:42:38.841Z,68.60
2017-12-29T01:45:07.940Z,68.70
2017-12-29T01:47:48.197Z,69.00
2017-12-29T01:50:18.034Z,69.50
2017-12-29T01:52:47.189Z,69.20
2017-12-29T01:55:16.813Z,69.20
2017-12-29T01:57:45.478Z,69.40
2017-12-29T02:00:15.009Z,69.20
2017-12-29T02:02:44.508Z,69.60
2017-12-29T02:05:13.498Z,69.70
2017-12-29T02:07:42.842Z,69.70
2017-12-29T02:10:13.235Z,69.50
2017-12-29T02:12:43.146Z,70.50
2017-12-29T02:15:13.322Z,70.30
2017-12-29T02:17:43.490Z,70.60
2017-12-29T02:20:12.180Z,70.50
2017-12-29T02:22:41.477Z,70.70
2017-12-29T02:25:10.370Z,71.00
2017-12-29T02:27:39.153Z,71.00
2017-12-29T02:30:10.311Z,71.40
2017-12-29T02:32:39.099Z,71.40
2017-12-29T02:35:08.799Z,71.60
2017-12-29T02:37:38.103Z,72.00
2017-12-29T02:40:06.787Z,71.90
2017-12-29T02:42:35.886Z,71.50
2017-12-29T02:45:05.362Z,71.40
2017-12-29T02:47:34.307Z,71.50
2017-12-29T02:50:03.576Z,71.80
2017-12-29T02:52:32.270Z,71.80
2017-12-29T02:55:02.461Z,72.00
2017-12-29T02:57:32.251Z,72.20
2017-12-29T03:00:01.965Z,71.80
2017-12-29T03:02:30.897Z,72.00
2017-12-29T03:05:01.223Z,72.30
2017-12-29T03:07:30.933Z,72.40
2017-12-29T03:10:00.540Z,71.80
2017-12-29T03:12:30.046Z,72.60
2017-12-29T03:14:59.551Z,71.60
2017-12-29T03:17:28.238Z,72.70
2017-12-29T03:19:57.193Z,71.80
2017-12-29T03:22:27.146Z,72.80
2017-12-29T03:24:56.794Z,73.10
2017-12-29T03:27:25.689Z,73.40
2017-12-29T03:29:55.460Z,73.70
2017-12-29T03:32:24.656Z,73.80
2017-12-29T03:34:53.592Z,73.80
2017-12-29T03:37:23.159Z,73.60
2017-12-29T03:39:51.840Z,73.90
2017-12-29T03:42:20.946Z,73.80
2017-12-29T03:44:50.341Z,74.10
2017-12-29T03:47:19.888Z,73.90
2017-12-29T03:49:49.554Z,74.50
2017-12-29T03:52:19.060Z,74.60
2017-12-29T03:54:48.466Z,74.90
2017-12-29T03:57:17.266Z,74.90
2017-12-29T03:59:46.453Z,74.80
2017-12-29T04:02:15.136Z,75.10
2017-12-29T04:04:44.942Z,75.80
2017-12-29T04:07:13.741Z,75.60
2017-12-29T04:09:42.634Z,75.40
2017-12-29T04:12:12.235Z,75.50
2017-12-29T04:14:40.970Z,75.90
2017-12-29T04:17:09.812Z,75.80
2017-12-29T04:19:38.605Z,75.80
2017-12-29T04:22:07.406Z,75.90
2017-12-29T04:24:36.288Z,76.10
2017-12-29T04:27:05.173Z,76.20
2017-12-29T04:29:35.505Z,76.20
2017-12-29T04:32:04.491Z,76.10
2017-12-29T04:34:33.314Z,76.30
2017-12-29T04:37:03.092Z,76.20
2017-12-29T04:39:32.478Z,76.20
2017-12-29T04:42:02.410Z,76.20
2017-12-29T04:44:31.302Z,76.50
2017-12-29T04:47:00.091Z,76.60
2017-12-29T04:49:28.774Z,76.80
2017-12-29T04:51:58.282Z,76.90
2017-12-29T04:54:27.083Z,76.80
2017-12-29T04:56:56.269Z,76.80
2017-12-29T04:59:25.466Z,76.90
2017-12-29T05:01:54.667Z,75.70
2017-12-29T05:04:24.071Z,75.60
2017-12-29T05:06:54.299Z,75.30
2017-12-29T05:09:24.209Z,75.40
2017-12-29T05:11:58.624Z,76.60
2017-12-29T05:14:27.312Z,76.70
2017-12-29T05:16:56.102Z,76.80
2017-12-29T05:19:24.892Z,76.70
2017-12-29T05:21:54.396Z,76.70
2017-12-29T05:24:24.669Z,76.70
2017-12-29T05:26:53.508Z,77.00
2017-12-29T05:29:22.246Z,76.40
2017-12-29T05:31:51.287Z,76.30
2017-12-29T05:34:19.978Z,76.40
2017-12-29T05:36:48.762Z,76.30
2017-12-29T05:39:17.657Z,76.10
2017-12-29T05:41:46.442Z,75.90
2017-12-29T05:44:15.949Z,75.90
2017-12-29T05:46:44.637Z,76.10
2017-12-29T05:49:13.260Z,75.90
2017-12-29T05:51:42.415Z,76.10
2017-12-29T05:54:11.204Z,75.90
2017-12-29T05:56:39.831Z,76.20
2017-12-29T05:59:08.473Z,76.30
2017-12-29T06:01:37.571Z,76.50
2017-12-29T06:04:07.074Z,76.70
2017-12-29T06:06:37.237Z,77.00
2017-12-29T06:09:05.922Z,77.20
2017-12-29T06:11:35.385Z,77.30
2017-12-29T06:14:04.245Z,77.70
2017-12-29T06:16:33.026Z,78.00
2017-12-29T06:19:02.574Z,78.10
2017-12-29T06:21:31.668Z,78.00
2017-12-29T06:24:00.477Z,78.30
2017-12-29T06:26:29.249Z,78.30
2017-12-29T06:28:58.545Z,78.30
2017-12-29T06:31:28.357Z,78.20
2017-12-29T06:33:57.973Z,78.30
2017-12-29T06:36:26.753Z,78.50
2017-12-29T06:38:56.257Z,78.30
2017-12-29T06:41:25.057Z,78.10
2017-12-29T06:43:53.938Z,78.10
2017-12-29T06:46:22.726Z,77.90
2017-12-29T06:48:51.516Z,78.00
2017-12-29T06:51:20.249Z,78.40
2017-12-29T06:56:19.728Z,77.20
2017-12-29T06:58:49.641Z,77.10
2017-12-29T07:01:19.149Z,77.00
2017-12-29T07:03:47.832Z,76.60
2017-12-29T07:06:17.135Z,76.70
2017-12-29T07:08:45.919Z,77.00
2017-12-29T07:11:14.707Z,76.70
2017-12-29T07:13:44.317Z,76.70
2017-12-29T07:18:43.634Z,76.00
2017-12-29T07:21:12.630Z,76.30
2017-12-29T07:26:11.741Z,76.10
2017-12-29T07:31:11.168Z,75.70
2017-12-29T07:33:40.208Z,75.60
2017-12-29T07:36:10.378Z,75.50
2017-12-29T07:41:10.003Z,75.20
2017-12-29T07:46:08.813Z,75.20
2017-12-29T07:48:38.177Z,75.10
2017-12-29T07:51:07.994Z,75.10
2017-12-29T07:53:37.631Z,74.80
2017-12-29T07:56:07.546Z,74.70
2017-12-29T07:58:37.466Z,74.70
2017-12-29T08:01:07.275Z,74.30
2017-12-29T08:03:36.374Z,74.30
2017-12-29T08:06:05.467Z,74.30
2017-12-29T08:08:34.570Z,73.70
2017-12-29T08:11:04.381Z,73.40
2017-12-29T08:13:33.078Z,73.60
2017-12-29T08:16:03.288Z,73.90
2017-12-29T08:18:33.299Z,74.20
2017-12-29T08:21:03.213Z,73.50
2017-12-29T08:23:33.132Z,73.30
2017-12-29T08:26:02.634Z,73.20
2017-12-29T08:28:32.148Z,72.80
2017-12-29T08:33:31.150Z,73.20
2017-12-29T08:35:59.885Z,73.00
2017-12-29T08:38:28.627Z,73.10
2017-12-29T08:40:57.416Z,73.60
2017-12-29T08:43:27.538Z,73.70
2017-12-29T08:48:27.201Z,73.70
2017-12-29T08:50:56.060Z,73.50
2017-12-29T08:53:25.968Z,73.10
2017-12-29T08:55:57.518Z,73.40
2017-12-29T08:58:26.725Z,73.60
2017-12-29T09:03:26.239Z,73.50
2017-12-29T09:05:54.924Z,73.40
2017-12-29T09:10:55.176Z,73.60
2017-12-29T09:13:24.611Z,73.50
2017-12-29T09:15:54.585Z,74.10
2017-12-29T09:18:23.680Z,74.60
2017-12-29T09:20:52.468Z,74.40
2017-12-29T09:23:21.974Z,74.50
2017-12-29T09:25:51.070Z,74.10
2017-12-29T09:28:21.190Z,74.10
2017-12-29T09:30:50.390Z,73.80
2017-12-29T09:33:20.716Z,73.50
2017-12-29T09:38:21.445Z,73.50
2017-12-29T09:40:51.429Z,73.80
2017-12-29T09:43:24.391Z,73.80
2017-12-29T09:45:53.259Z,75.50
2017-12-29T09:48:22.293Z,76.30
2017-12-29T09:53:21.116Z,76.80
2017-12-29T09:55:50.254Z,77.60
2017-12-29T09:58:20.175Z,78.20
2017-12-29T10:00:50.093Z,78.60
2017-12-29T10:03:19.717Z,79.30
2017-12-29T10:05:49.734Z,79.50
2017-12-29T10:08:20.103Z,79.90
2017-12-29T10:10:49.336Z,79.50
2017-12-29T10:13:18.840Z,79.90
2017-12-29T10:15:47.838Z,79.10
2017-12-29T10:18:17.034Z,79.30
2017-12-29T10:23:16.872Z,78.70
2017-12-29T10:38:17.528Z,77.40
2017-12-29T10:43:18.835Z,76.60
2017-12-29T10:45:48.043Z,77.20
2017-12-29T10:55:47.401Z,77.10
2017-12-29T10:58:16.605Z,77.00
2017-12-29T11:00:45.297Z,75.70
2017-12-29T11:03:15.710Z,75.00
2017-12-29T11:13:15.324Z,74.80
2017-12-29T11:18:14.584Z,73.80
2017-12-29T11:20:43.732Z,71.90
2017-12-29T11:25:42.805Z,71.40
2017-12-29T11:28:12.407Z,71.00
2017-12-29T11:30:43.545Z,70.00
2017-12-29T11:33:13.874Z,69.60
2017-12-29T11:38:13.138Z,69.00
2017-12-29T11:43:12.100Z,68.70
2017-12-29T11:48:10.902Z,68.90
2017-12-29T11:50:41.227Z,69.00
2017-12-29T11:58:10.768Z,69.60
2017-12-29T12:03:09.878Z,70.00
2017-12-29T12:08:09.400Z,69.80
2017-12-29T12:13:08.718Z,70.00
2017-12-29T12:23:07.868Z,70.20
2017-12-29T12:28:07.902Z,70.00
2017-12-29T12:30:36.995Z,69.30
2017-12-29T12:33:06.398Z,69.10
2017-12-29T12:35:36.317Z,69.10
2017-12-29T12:38:06.638Z,68.10
2017-12-29T12:40:36.756Z,68.00
2017-12-29T12:45:37.010Z,67.20
2017-12-29T12:48:05.685Z,67.40
2017-12-29T12:50:35.092Z,66.90
2017-12-29T13:05:34.581Z,65.90
2017-12-29T13:10:34.202Z,66.10
2017-12-29T13:15:33.528Z,65.90
2017-12-29T13:18:03.620Z,65.50
2017-12-29T13:25:32.624Z,65.70
2017-12-29T13:35:31.611Z,65.30
2017-12-29T13:40:30.485Z,65.30
2017-12-29T13:42:59.613Z,65.20
2017-12-29T13:47:59.242Z,65.60
2017-12-29T13:52:59.085Z,65.80
2017-12-29T13:57:58.492Z,65.90
2017-12-29T14:00:27.995Z,65.70
2017-12-29T14:02:57.192Z,65.70
2017-12-29T14:07:56.523Z,65.10
2017-12-29T14:10:25.708Z,65.60
2017-12-29T14:12:54.804Z,65.70
2017-12-29T14:15:24.414Z,65.50
2017-12-29T14:17:53.205Z,65.20
2017-12-29T14:20:22.399Z,65.30
2017-12-29T14:22:52.211Z,65.50
2017-12-29T14:25:21.719Z,65.50
2017-12-29T14:30:21.920Z,65.80
2017-12-29T14:32:51.154Z,66.10
2017-12-29T14:35:21.380Z,66.40
2017-12-29T14:37:50.418Z,66.00
2017-12-29T14:40:19.136Z,66.10
2017-12-29T14:42:48.664Z,66.30
2017-12-29T14:47:47.677Z,66.70
2017-12-29T14:50:17.285Z,66.60
2017-12-29T14:52:46.322Z,66.70
2017-12-29T14:57:45.191Z,67.20
2017-12-29T15:00:14.562Z,67.30
2017-12-29T15:02:44.165Z,67.00
2017-12-29T15:05:12.792Z,67.40
2017-12-29T15:07:42.181Z,67.20
2017-12-29T15:15:11.521Z,66.70
2017-12-29T15:17:41.024Z,66.70
2017-12-29T15:20:11.248Z,66.40
2017-12-29T15:22:41.472Z,66.50
2017-12-29T15:25:11.611Z,66.60
2017-12-29T15:27:41.606Z,66.70
2017-12-29T15:30:11.007Z,66.50
2017-12-29T15:32:40.718Z,66.70
2017-12-29T15:35:09.506Z,67.00
2017-12-29T15:37:38.601Z,66.60
2017-12-29T15:40:08.929Z,67.10
2017-12-29T15:42:38.538Z,67.10
2017-12-29T15:47:38.585Z,67.20
2017-12-29T15:52:38.910Z,67.10
2017-12-29T15:55:08.855Z,67.20
2017-12-29T15:57:38.847Z,67.40
2017-12-29T16:00:08.454Z,67.30
2017-12-29T16:05:07.258Z,67.90
2017-12-29T16:10:07.559Z,68.30
2017-12-29T16:20:08.431Z,68.60
2017-12-29T16:25:09.060Z,68.90
2017-12-29T16:30:09.082Z,68.80
2017-12-29T16:32:39.878Z,68.90
2017-12-29T16:40:10.880Z,69.00
2017-12-29T16:42:39.764Z,69.20
2017-12-29T16:45:09.074Z,69.60
2017-12-29T16:47:38.788Z,69.40
2017-12-29T16:55:08.958Z,70.40
2017-12-29T17:02:39.352Z,70.90
2017-12-29T17:07:39.869Z,70.80
2017-12-29T17:12:40.816Z,70.60
2017-12-29T17:15:10.925Z,70.60
2017-12-29T17:20:11.487Z,71.30
2017-12-29T17:27:42.235Z,71.50
2017-12-29T17:30:11.844Z,71.50
2017-12-29T17:35:12.689Z,71.80
2017-12-29T17:40:11.398Z,71.90
2017-12-29T17:42:40.968Z,72.00
2017-12-29T17:50:10.342Z,72.20
2017-12-29T17:52:40.366Z,72.50
2017-12-29T17:55:09.148Z,72.90
2017-12-29T18:10:12.033Z,72.70
2017-12-29T18:15:12.841Z,73.10
2017-12-29T18:17:43.471Z,73.20
2017-12-29T18:22:43.743Z,73.60
2017-12-29T18:27:45.814Z,74.10
2017-12-29T18:30:15.331Z,74.00
2017-12-29T18:32:45.473Z,74.00
2017-12-29T18:35:15.574Z,74.40
2017-12-29T18:37:45.649Z,74.40
2017-12-29T18:42:46.549Z,74.10
2017-12-29T18:47:48.732Z,73.80
2017-12-29T18:50:18.824Z,74.10
2017-12-29T18:55:18.883Z,74.00
2017-12-29T18:57:47.673Z,73.80
2017-12-29T19:15:20.352Z,74.90
2017-12-29T19:17:50.575Z,74.60
2017-12-29T19:20:20.189Z,74.70
2017-12-29T19:25:20.321Z,75.20
2017-12-29T19:27:50.646Z,75.00
2017-12-29T19:32:49.964Z,75.40
2017-12-29T19:50:20.088Z,76.90
2017-12-29T19:57:49.036Z,77.30
2017-12-29T20:00:18.866Z,77.50
2017-12-29T20:02:49.150Z,77.30
2017-12-29T20:05:19.065Z,77.40
2017-12-29T20:07:49.288Z,77.90
2017-12-29T20:10:18.791Z,77.90
2017-12-29T20:12:49.019Z,78.20
2017-12-29T20:17:49.558Z,78.60
2017-12-29T20:30:19.034Z,79.20
2017-12-29T20:32:48.758Z,79.60
2017-12-29T20:35:17.837Z,79.90
2017-12-29T20:37:47.546Z,80.10
2017-12-29T20:40:18.083Z,79.70
2017-12-29T20:42:47.365Z,79.70
2017-12-29T20:45:16.717Z,79.60
2017-12-29T20:47:46.387Z,79.60
2017-12-29T20:50:15.895Z,79.30
2017-12-29T20:52:44.993Z,79.40
2017-12-29T20:55:14.093Z,79.20
2017-12-29T20:57:42.873Z,79.70
2017-12-29T21:02:43.320Z,80.00
2017-12-29T21:05:12.823Z,80.20
2017-12-29T21:07:42.023Z,80.50
2017-12-29T21:10:12.104Z,80.60
2017-12-29T21:12:41.176Z,80.60
2017-12-29T21:15:10.742Z,81.00
2017-12-29T21:17:40.412Z,81.40
2017-12-29T21:22:40.486Z,81.70
2017-12-29T21:25:09.584Z,82.10
2017-12-29T21:27:39.311Z,81.70
2017-12-29T21:30:08.185Z,81.90
2017-12-29T21:32:37.292Z,82.10
2017-12-29T21:35:06.172Z,82.00
2017-12-29T21:37:36.816Z,81.80
2017-12-29T21:40:06.413Z,81.70
2017-12-29T21:42:36.338Z,81.40
2017-12-29T21:45:06.752Z,81.40
2017-12-29T21:47:35.960Z,81.40
2017-12-29T21:50:05.251Z,81.10
2017-12-29T21:52:36.292Z,81.20
2017-12-29T21:55:05.602Z,81.10
2017-12-29T21:57:35.155Z,81.10
2017-12-29T22:00:05.640Z,81.10
2017-12-29T22:02:35.447Z,81.50
2017-12-29T22:05:04.235Z,81.70
2017-12-29T22:07:33.737Z,81.40
2017-12-29T22:10:02.593Z,81.30
2017-12-29T22:12:32.134Z,81.40
2017-12-29T22:15:01.441Z,81.60
2017-12-29T22:17:31.555Z,81.80
2017-12-29T22:20:01.640Z,82.10
2017-12-29T22:22:31.665Z,82.00
2017-12-29T22:25:00.769Z,82.10
2017-12-29T22:27:30.656Z,82.10
2017-12-29T22:30:00.314Z,82.20
2017-12-29T22:32:30.227Z,82.40
2017-12-29T22:34:59.018Z,82.50
2017-12-29T22:37:28.351Z,82.60
2017-12-29T22:39:58.237Z,82.20
2017-12-29T22:42:27.879Z,82.40
2017-12-29T22:44:57.341Z,82.60
2017-12-29T22:47:26.240Z,82.90
2017-12-29T22:49:55.764Z,82.90
2017-12-29T22:52:25.449Z,83.00
2017-12-29T22:54:55.265Z,82.70
2017-12-29T22:57:24.873Z,82.80
2017-12-29T22:59:54.724Z,83.00
2017-12-29T23:02:24.403Z,82.60
2017-12-29T23:04:53.901Z,83.00
2017-12-29T23:07:23.502Z,82.60
2017-12-29T23:09:53.622Z,82.40
2017-12-29T23:12:23.242Z,82.60
2017-12-29T23:14:52.945Z,82.90
2017-12-29T23:17:21.834Z,82.60
2017-12-29T23:19:51.437Z,82.50
2017-12-29T23:22:20.487Z,82.60
2017-12-29T23:24:49.423Z,82.50
2017-12-29T23:27:19.442Z,82.60
2017-12-29T23:29:49.155Z,82.50
2017-12-29T23:32:18.452Z,82.50
2017-12-29T23:34:47.547Z,82.60
2017-12-29T23:37:17.155Z,82.60
2017-12-29T23:39:47.198Z,82.70
2017-12-29T23:42:16.487Z,82.70
2017-12-29T23:44:46.184Z,82.60
2017-12-29T23:47:15.282Z,82.40
2017-12-29T23:49:45.003Z,81.70
2017-12-29T23:52:13.676Z,81.50
2017-12-29T23:54:43.292Z,81.60
2017-12-29T23:57:12.388Z,81.90
2017-12-29T23:59:41.376Z,81.80
